Time;durP1;ratioP1;P1;durP2;ratioP2;P2;SDS_P1;SDS_P2;PMS_P1;PMS_P2;Temp;Humidity;BMP_temperature;BMP_pressure;BME280_temperature;BME280_humidity;BME280_pressure;Samples;Min_cycle;Max_cycle;Signal;HPM_P1;HPM_P2
2022/12/13 00:01:13;;;;;;;57.67;24.13;;;;;;;;;;5056414;28;20147;-75
2022/12/13 00:03:39;;;;;;;51.90;24.52;;;;;;;;;;5052264;28;20041;-75
2022/12/13 00:06:09;;;;;;;50.53;24.17;;;;;;;;;;5053521;28;20120;-76
2022/12/13 00:08:35;;;;;;;49.45;23.05;;;;;;;;;;5058800;28;20488;-76
2022/12/13 00:11:05;;;;;;;49.63;23.23;;;;;;;;;;5060990;28;20052;-76
2022/12/13 00:13:31;;;;;;;51.10;24.33;;;;;;;;;;5053654;28;20488;-76
2022/12/13 00:15:58;;;;;;;46.80;23.15;;;;;;;;;;5053437;28;20072;-75
2022/12/13 00:18:25;;;;;;;53.63;23.95;;;;;;;;;;5054118;28;20045;-75
2022/12/13 00:20:51;;;;;;;46.88;22.30;;;;;;;;;;5052731;28;20047;-75
2022/12/13 00:23:17;;;;;;;47.80;22.60;;;;;;;;;;5054530;28;20084;-75
2022/12/13 00:25:43;;;;;;;48.47;24.70;;;;;;;;;;5053760;28;20041;-75
2022/12/13 00:28:09;;;;;;;53.50;23.85;;;;;;;;;;5044913;28;20049;-75
2022/12/13 00:30:35;;;;;;;49.15;22.52;;;;;;;;;;5052287;28;20091;-75
2022/12/13 00:33:01;;;;;;;49.28;22.50;;;;;;;;;;5053330;28;20037;-75
2022/12/13 00:35:27;;;;;;;48.83;23.27;;;;;;;;;;5051427;28;20036;-75
2022/12/13 00:37:53;;;;;;;47.40;22.63;;;;;;;;;;5052173;28;20435;-75
2022/12/13 00:40:20;;;;;;;47.40;22.60;;;;;;;;;;5052524;28;20575;-75
2022/12/13 00:42:46;;;;;;;50.85;23.17;;;;;;;;;;5052095;28;20044;-75
2022/12/13 00:45:12;;;;;;;47.83;21.77;;;;;;;;;;5046628;28;20079;-75
2022/12/13 00:47:38;;;;;;;46.55;23.92;;;;;;;;;;5031432;28;20500;-75
2022/12/13 00:50:05;;;;;;;48.83;23.05;;;;;;;;;;5050453;28;22182;-75
2022/12/13 00:52:31;;;;;;;52.13;22.75;;;;;;;;;;5052366;28;20068;-75
2022/12/13 00:54:57;;;;;;;46.33;22.20;;;;;;;;;;5052961;28;20128;-75
2022/12/13 00:57:23;;;;;;;44.67;23.30;;;;;;;;;;5053527;28;20041;-75
2022/12/13 00:59:49;;;;;;;52.45;24.10;;;;;;;;;;5053568;28;20114;-75
2022/12/13 01:02:15;;;;;;;46.22;22.75;;;;;;;;;;5051940;28;20043;-75
2022/12/13 01:04:42;;;;;;;44.75;21.58;;;;;;;;;;5052677;28;20036;-75
2022/12/13 01:07:08;;;;;;;46.58;22.52;;;;;;;;;;5052547;28;20431;-75
2022/12/13 01:09:34;;;;;;;45.78;23.00;;;;;;;;;;5051302;28;20512;-75
2022/12/13 01:12:01;;;;;;;44.03;21.80;;;;;;;;;;5052599;28;20119;-75
2022/12/13 01:14:27;;;;;;;48.88;23.48;;;;;;;;;;5053168;28;20056;-75
2022/12/13 01:16:56;;;;;;;42.35;22.50;;;;;;;;;;5053763;28;20120;-75
2022/12/13 01:19:26;;;;;;;47.83;24.67;;;;;;;;;;5052780;28;20060;-75
2022/12/13 01:21:56;;;;;;;42.05;21.30;;;;;;;;;;5050985;28;20500;-75
2022/12/13 01:24:24;;;;;;;48.47;24.33;;;;;;;;;;5055897;28;20036;-75
2022/12/13 01:26:50;;;;;;;47.60;23.40;;;;;;;;;;5035380;28;20041;-75
2022/12/13 01:29:17;;;;;;;47.55;22.52;;;;;;;;;;5052393;28;20048;-75
2022/12/13 01:31:43;;;;;;;46.35;22.05;;;;;;;;;;5052491;28;20084;-75
2022/12/13 01:34:10;;;;;;;45.00;22.27;;;;;;;;;;5052006;28;20072;-75
2022/12/13 01:36:37;;;;;;;41.22;21.13;;;;;;;;;;5049793;28;20052;-75
2022/12/13 01:39:03;;;;;;;43.28;21.00;;;;;;;;;;5051537;28;20508;-75
2022/12/13 01:41:29;;;;;;;45.08;23.08;;;;;;;;;;5046372;28;20515;-75
2022/12/13 01:43:59;;;;;;;45.80;21.98;;;;;;;;;;5052996;28;20095;-75
2022/12/13 01:46:25;;;;;;;47.13;22.70;;;;;;;;;;5034852;28;20044;-75
2022/12/13 01:49:01;;;;;;;47.63;21.08;;;;;;;;;;5052457;28;20041;-75
2022/12/13 01:51:30;;;;;;;40.28;20.50;;;;;;;;;;5054519;28;20036;-75
2022/12/13 01:53:57;;;;;;;42.13;21.50;;;;;;;;;;5051395;28;20408;-75
2022/12/13 01:56:29;;;;;;;41.22;21.10;;;;;;;;;;5033456;28;20057;-75
2022/12/13 01:58:56;;;;;;;43.60;22.75;;;;;;;;;;5053503;28;20055;-75
2022/12/13 02:01:22;;;;;;;40.45;20.83;;;;;;;;;;5051896;28;20049;-75
2022/12/13 02:03:48;;;;;;;36.95;20.00;;;;;;;;;;5034231;28;20554;-75
2022/12/13 02:06:44;;;;;;;38.45;20.48;;;;;;;;;;5051905;28;20385;-75
2022/12/13 02:09:11;;;;;;;44.78;20.20;;;;;;;;;;5042300;28;20053;-75
2022/12/13 02:11:39;;;;;;;38.47;20.50;;;;;;;;;;5052288;28;20053;-75
2022/12/13 02:14:05;;;;;;;39.25;19.55;;;;;;;;;;5035541;28;20057;-75
2022/12/13 02:16:34;;;;;;;39.28;20.77;;;;;;;;;;5054897;28;20041;-75
2022/12/13 02:19:18;;;;;;;44.60;20.27;;;;;;;;;;5039236;28;20072;-75
2022/12/13 02:21:44;;;;;;;42.97;19.65;;;;;;;;;;5052014;28;20037;-75
2022/12/13 02:24:17;;;;;;;39.08;20.20;;;;;;;;;;5038383;28;20132;-75
2022/12/13 02:26:46;;;;;;;40.50;19.60;;;;;;;;;;5056174;28;20124;-75
2022/12/13 02:29:12;;;;;;;41.92;19.88;;;;;;;;;;5037667;28;20045;-75
2022/12/13 02:31:48;;;;;;;40.00;19.25;;;;;;;;;;5056454;28;20388;-75
2022/12/13 02:34:21;;;;;;;38.92;20.27;;;;;;;;;;5056892;28;20048;-75
2022/12/13 02:36:53;;;;;;;38.35;19.25;;;;;;;;;;5036472;28;20079;-75
2022/12/13 02:39:26;;;;;;;40.03;19.67;;;;;;;;;;5037704;28;20080;-75
2022/12/13 02:41:59;;;;;;;43.58;20.35;;;;;;;;;;5056234;28;20120;-75
2022/12/13 02:44:35;;;;;;;39.08;20.38;;;;;;;;;;5058029;28;20519;-75
2022/12/13 02:47:05;;;;;;;36.20;18.63;;;;;;;;;;5056246;28;20574;-75
2022/12/13 02:49:34;;;;;;;38.75;19.50;;;;;;;;;;5056259;28;20563;-75
2022/12/13 02:52:00;;;;;;;36.70;19.65;;;;;;;;;;5056392;28;20044;-75
2022/12/13 02:54:26;;;;;;;36.20;18.85;;;;;;;;;;5053714;28;20049;-75
2022/12/13 02:56:56;;;;;;;39.38;19.52;;;;;;;;;;5054958;28;20112;-75
2022/12/13 02:59:24;;;;;;;43.10;20.38;;;;;;;;;;5059121;28;20041;-76
2022/12/13 03:01:53;;;;;;;37.35;18.88;;;;;;;;;;5059351;28;20068;-76
2022/12/13 03:06:28;;;;;;;36.22;18.83;;;;;;;;;;5057137;28;20036;-76
2022/12/13 03:08:00;;;;;;;40.95;19.75;;;;;;;;;;5044566;28;20049;-76
2022/12/13 03:10:32;;;;;;;38.03;20.17;;;;;;;;;;5040731;28;20041;-76
2022/12/13 03:15:55;;;;;;;41.25;19.98;;;;;;;;;;5055401;28;20056;-75
2022/12/13 03:18:22;;;;;;;38.72;19.02;;;;;;;;;;5054741;28;20041;-75
2022/12/13 03:20:51;;;;;;;34.38;18.65;;;;;;;;;;5055137;28;20207;-75
2022/12/13 03:23:18;;;;;;;42.60;20.30;;;;;;;;;;5054724;28;20041;-75
2022/12/13 03:25:44;;;;;;;42.03;18.98;;;;;;;;;;5054224;28;20044;-75
2022/12/13 03:28:11;;;;;;;39.97;19.92;;;;;;;;;;5052954;28;20052;-75
2022/12/13 03:30:37;;;;;;;43.10;20.83;;;;;;;;;;5069011;28;20041;-75
2022/12/13 03:33:04;;;;;;;38.15;20.45;;;;;;;;;;5055005;28;20048;-75
2022/12/13 03:35:30;;;;;;;37.33;18.15;;;;;;;;;;5055058;28;20056;-75
2022/12/13 03:37:56;;;;;;;39.15;19.58;;;;;;;;;;5034616;28;20282;-75
2022/12/13 03:40:23;;;;;;;37.70;21.27;;;;;;;;;;5053977;28;20041;-75
2022/12/13 03:42:49;;;;;;;39.38;18.65;;;;;;;;;;5054793;28;20059;-75
2022/12/13 03:45:17;;;;;;;37.78;18.67;;;;;;;;;;5053534;28;20045;-75
2022/12/13 03:47:43;;;;;;;39.75;19.33;;;;;;;;;;5055018;28;20087;-75
2022/12/13 03:50:09;;;;;;;39.65;19.58;;;;;;;;;;5055272;28;20107;-75
2022/12/13 03:52:35;;;;;;;37.80;19.83;;;;;;;;;;5048278;28;20492;-75
2022/12/13 03:55:01;;;;;;;37.67;18.75;;;;;;;;;;5054096;28;20041;-75
2022/12/13 03:57:28;;;;;;;39.45;19.80;;;;;;;;;;5035153;28;20519;-75
2022/12/13 03:59:54;;;;;;;38.65;20.20;;;;;;;;;;5058650;28;20040;-75
2022/12/13 04:02:20;;;;;;;36.45;19.65;;;;;;;;;;5055153;28;20041;-75
2022/12/13 04:04:46;;;;;;;39.20;19.77;;;;;;;;;;5054683;28;20065;-75
2022/12/13 04:07:12;;;;;;;37.10;19.15;;;;;;;;;;5053411;28;20068;-75
2022/12/13 04:09:38;;;;;;;39.95;19.77;;;;;;;;;;5046005;28;20047;-75
2022/12/13 04:14:49;;;;;;;36.63;17.67;;;;;;;;;;5053184;28;20045;-75
2022/12/13 04:17:15;;;;;;;39.03;19.63;;;;;;;;;;5053741;28;20103;-75
2022/12/13 04:19:41;;;;;;;35.67;18.75;;;;;;;;;;5053499;28;20044;-75
2022/12/13 04:22:07;;;;;;;41.97;20.38;;;;;;;;;;5053876;28;20432;-75
2022/12/13 04:24:33;;;;;;;37.17;20.27;;;;;;;;;;5036848;28;20041;-75
2022/12/13 04:27:00;;;;;;;42.88;19.60;;;;;;;;;;5035346;28;20040;-75
2022/12/13 04:29:26;;;;;;;37.15;18.95;;;;;;;;;;5053693;28;20037;-75
2022/12/13 04:31:52;;;;;;;41.47;19.98;;;;;;;;;;5053127;28;20055;-75
2022/12/13 04:34:18;;;;;;;38.30;19.05;;;;;;;;;;5033480;28;20501;-75
2022/12/13 04:36:44;;;;;;;39.33;19.75;;;;;;;;;;5044988;28;20533;-75
2022/12/13 04:39:10;;;;;;;44.10;21.48;;;;;;;;;;5052452;28;20131;-75
2022/12/13 04:41:36;;;;;;;40.35;19.65;;;;;;;;;;5047102;28;20159;-75
2022/12/13 04:44:03;;;;;;;43.40;22.58;;;;;;;;;;5053726;28;20065;-75
2022/12/13 04:46:29;;;;;;;38.95;19.08;;;;;;;;;;5056424;28;20036;-76
2022/12/13 04:48:55;;;;;;;38.17;19.58;;;;;;;;;;5065821;28;20045;-76
2022/12/13 04:51:21;;;;;;;34.85;19.52;;;;;;;;;;5032247;28;20465;-76
2022/12/13 04:53:47;;;;;;;37.35;20.35;;;;;;;;;;5019506;28;20531;-76
2022/12/13 04:56:13;;;;;;;40.85;19.50;;;;;;;;;;5045466;28;20041;-75
2022/12/13 04:58:39;;;;;;;36.70;18.55;;;;;;;;;;5050357;28;20124;-76
2022/12/13 05:01:07;;;;;;;41.63;21.88;;;;;;;;;;5052719;28;20551;-76
2022/12/13 05:03:33;;;;;;;41.22;20.38;;;;;;;;;;5051320;28;20048;-76
2022/12/13 05:05:59;;;;;;;36.25;20.25;;;;;;;;;;5053955;28;20098;-75
2022/12/13 05:08:25;;;;;;;35.15;20.45;;;;;;;;;;5052449;28;20040;-75
2022/12/13 05:10:51;;;;;;;38.40;20.02;;;;;;;;;;5053596;28;20053;-75
2022/12/13 05:13:17;;;;;;;35.92;20.05;;;;;;;;;;5053532;28;20086;-75
2022/12/13 05:15:43;;;;;;;35.40;20.05;;;;;;;;;;5011089;28;20050;-75
2022/12/13 05:18:09;;;;;;;37.22;19.83;;;;;;;;;;5053395;28;20128;-75
2022/12/13 05:20:35;;;;;;;35.55;19.42;;;;;;;;;;5039800;28;20037;-75
2022/12/13 05:23:01;;;;;;;39.85;21.38;;;;;;;;;;5034846;28;20227;-75
2022/12/13 05:25:28;;;;;;;36.53;20.75;;;;;;;;;;5053487;28;20045;-75
2022/12/13 05:27:56;;;;;;;35.55;19.50;;;;;;;;;;5051894;28;20036;-75
2022/12/13 05:30:22;;;;;;;36.67;20.65;;;;;;;;;;5053326;28;20464;-75
2022/12/13 05:32:48;;;;;;;39.63;21.30;;;;;;;;;;5053413;28;20041;-75
2022/12/13 05:35:15;;;;;;;34.88;19.40;;;;;;;;;;5049874;28;20080;-75
2022/12/13 05:37:41;;;;;;;38.58;19.15;;;;;;;;;;5052257;28;20036;-75
2022/12/13 05:40:08;;;;;;;34.55;19.95;;;;;;;;;;5052929;28;20060;-75
2022/12/13 05:42:36;;;;;;;34.95;19.58;;;;;;;;;;5031382;28;20033;-75
2022/12/13 05:45:02;;;;;;;35.80;19.30;;;;;;;;;;5048813;28;20052;-76
2022/12/13 05:47:28;;;;;;;39.15;19.00;;;;;;;;;;5034335;28;20045;-76
2022/12/13 05:49:54;;;;;;;33.38;19.10;;;;;;;;;;5052681;28;20523;-75
2022/12/13 05:52:21;;;;;;;37.22;19.65;;;;;;;;;;5049705;28;20044;-75
2022/12/13 05:54:48;;;;;;;36.30;19.60;;;;;;;;;;5050540;28;20041;-75
2022/12/13 05:57:14;;;;;;;39.03;21.65;;;;;;;;;;5052271;28;20079;-76
2022/12/13 05:59:40;;;;;;;36.17;19.63;;;;;;;;;;5052426;28;20048;-76
2022/12/13 06:02:06;;;;;;;37.25;19.98;;;;;;;;;;5054469;28;20041;-76
2022/12/13 06:04:32;;;;;;;34.53;19.13;;;;;;;;;;5057704;28;20052;-76
2022/12/13 06:06:58;;;;;;;34.50;19.58;;;;;;;;;;5052042;28;20049;-76
2022/12/13 06:09:24;;;;;;;35.70;18.92;;;;;;;;;;5053513;28;20041;-76
2022/12/13 06:11:50;;;;;;;37.47;19.88;;;;;;;;;;5052714;28;20049;-76
2022/12/13 06:14:16;;;;;;;34.65;20.25;;;;;;;;;;5034563;28;20083;-76
2022/12/13 06:16:42;;;;;;;38.85;21.10;;;;;;;;;;5051958;28;20180;-76
2022/12/13 06:19:08;;;;;;;34.63;20.27;;;;;;;;;;5052370;28;20107;-76
2022/12/13 06:21:35;;;;;;;42.00;21.58;;;;;;;;;;5052408;28;20489;-76
2022/12/13 06:24:04;;;;;;;40.67;21.05;;;;;;;;;;5050980;28;20388;-76
2022/12/13 06:26:30;;;;;;;37.08;20.38;;;;;;;;;;5053013;28;20053;-76
2022/12/13 06:28:56;;;;;;;41.58;21.63;;;;;;;;;;5048075;28;20076;-75
2022/12/13 06:31:22;;;;;;;38.92;20.73;;;;;;;;;;5052204;28;20041;-76
2022/12/13 06:33:49;;;;;;;38.38;21.50;;;;;;;;;;5034440;28;20049;-76
2022/12/13 06:36:15;;;;;;;40.53;21.95;;;;;;;;;;5051528;28;20057;-76
2022/12/13 06:38:41;;;;;;;39.03;20.50;;;;;;;;;;5051551;28;20063;-75
2022/12/13 06:41:11;;;;;;;32.83;20.30;;;;;;;;;;5051792;28;20533;-78
2022/12/13 06:43:43;;;;;;;39.22;21.23;;;;;;;;;;5052656;28;20049;-75
2022/12/13 06:46:09;;;;;;;37.03;21.17;;;;;;;;;;5034318;28;20056;-76
2022/12/13 06:48:35;;;;;;;40.10;21.95;;;;;;;;;;5051691;28;20041;-77
2022/12/13 06:51:02;;;;;;;44.30;21.67;;;;;;;;;;5037682;28;20064;-76
2022/12/13 06:53:28;;;;;;;39.42;21.42;;;;;;;;;;5049375;28;20128;-76
2022/12/13 06:55:54;;;;;;;38.53;21.80;;;;;;;;;;5025451;28;20045;-76
2022/12/13 06:58:20;;;;;;;38.58;21.67;;;;;;;;;;5046877;28;20406;-76
2022/12/13 07:00:47;;;;;;;35.58;20.33;;;;;;;;;;5054034;28;20037;-76
2022/12/13 07:03:14;;;;;;;36.65;21.50;;;;;;;;;;5034989;28;20171;-76
2022/12/13 07:05:40;;;;;;;36.25;20.48;;;;;;;;;;5024965;28;20049;-76
2022/12/13 07:08:06;;;;;;;43.25;21.75;;;;;;;;;;5036727;28;20073;-76
2022/12/13 07:10:32;;;;;;;44.38;23.27;;;;;;;;;;5037671;28;20056;-76
2022/12/13 07:12:58;;;;;;;39.90;21.02;;;;;;;;;;5055580;28;20052;-76
2022/12/13 07:15:24;;;;;;;37.60;21.23;;;;;;;;;;5037647;28;20049;-76
2022/12/13 07:17:51;;;;;;;36.05;20.90;;;;;;;;;;5056184;28;20037;-76
2022/12/13 07:20:19;;;;;;;36.65;20.48;;;;;;;;;;5059097;28;20116;-76
2022/12/13 07:22:48;;;;;;;37.10;21.13;;;;;;;;;;5065214;28;20095;-76
2022/12/13 07:25:15;;;;;;;41.53;21.67;;;;;;;;;;5043731;28;20111;-76
2022/12/13 07:27:41;;;;;;;38.33;22.30;;;;;;;;;;5045379;28;20033;-76
2022/12/13 07:30:07;;;;;;;39.15;21.33;;;;;;;;;;5055281;28;20048;-76
2022/12/13 07:32:33;;;;;;;39.85;21.77;;;;;;;;;;5045063;28;20091;-76
2022/12/13 07:34:59;;;;;;;38.40;21.60;;;;;;;;;;5055029;28;20094;-76
2022/12/13 07:37:25;;;;;;;40.58;22.95;;;;;;;;;;5055190;28;20041;-76
2022/12/13 07:39:51;;;;;;;46.88;23.65;;;;;;;;;;5037520;28;20036;-78
2022/12/13 07:42:17;;;;;;;41.85;23.77;;;;;;;;;;5055484;28;20047;-76
2022/12/13 07:44:43;;;;;;;37.90;21.80;;;;;;;;;;5037508;28;20347;-81
2022/12/13 07:47:09;;;;;;;40.88;22.60;;;;;;;;;;5051751;28;20102;-76
2022/12/13 07:49:35;;;;;;;42.97;23.15;;;;;;;;;;5052789;28;20134;-76
2022/12/13 07:52:02;;;;;;;43.63;22.73;;;;;;;;;;5054486;28;20040;-76
2022/12/13 07:54:28;;;;;;;38.67;22.20;;;;;;;;;;5052892;28;20465;-76
2022/12/13 07:56:54;;;;;;;43.22;22.65;;;;;;;;;;5055197;28;20048;-76
2022/12/13 07:59:20;;;;;;;37.10;22.83;;;;;;;;;;5054134;28;20555;-77
2022/12/13 08:01:46;;;;;;;40.88;22.25;;;;;;;;;;5055025;28;20116;-77
2022/12/13 08:04:12;;;;;;;41.03;23.35;;;;;;;;;;5058706;28;20520;-77
2022/12/13 08:06:38;;;;;;;40.15;23.23;;;;;;;;;;5055192;28;20048;-76
2022/12/13 08:09:05;;;;;;;38.78;22.20;;;;;;;;;;5054858;28;20045;-77
2022/12/13 08:11:31;;;;;;;36.15;21.48;;;;;;;;;;5053051;28;20056;-77
2022/12/13 08:13:57;;;;;;;42.97;22.77;;;;;;;;;;5019577;28;20053;-77
2022/12/13 08:16:23;;;;;;;35.92;21.30;;;;;;;;;;5054375;28;20126;-77
2022/12/13 08:18:49;;;;;;;39.40;21.58;;;;;;;;;;5032139;28;20404;-77
2022/12/13 08:21:15;;;;;;;32.95;20.42;;;;;;;;;;5053922;28;20041;-77
2022/12/13 08:23:41;;;;;;;37.33;21.60;;;;;;;;;;5053373;28;20053;-77
2022/12/13 08:26:07;;;;;;;37.20;21.50;;;;;;;;;;5047571;28;20094;-77
2022/12/13 08:28:34;;;;;;;43.90;21.90;;;;;;;;;;5054355;28;20045;-77
2022/12/13 08:31:04;;;;;;;34.22;19.50;;;;;;;;;;5054054;28;20486;-77
2022/12/13 08:33:30;;;;;;;36.65;19.05;;;;;;;;;;5045054;28;20090;-77
2022/12/13 08:35:57;;;;;;;34.97;20.30;;;;;;;;;;5053274;28;20067;-78
2022/12/13 08:38:23;;;;;;;36.70;20.77;;;;;;;;;;5054343;28;20049;-77
2022/12/13 08:40:49;;;;;;;38.75;20.42;;;;;;;;;;5054713;28;20045;-80
2022/12/13 08:43:15;;;;;;;37.25;20.45;;;;;;;;;;5053510;28;20056;-76
2022/12/13 08:45:41;;;;;;;38.42;20.90;;;;;;;;;;5036224;28;20041;-77
2022/12/13 08:48:08;;;;;;;42.47;20.60;;;;;;;;;;5035154;28;20112;-77
2022/12/13 08:50:34;;;;;;;38.95;20.42;;;;;;;;;;5046402;28;20056;-77
2022/12/13 08:53:00;;;;;;;36.00;19.40;;;;;;;;;;5049342;28;20093;-77
2022/12/13 08:55:26;;;;;;;38.55;21.35;;;;;;;;;;5053172;28;20041;-77
2022/12/13 08:57:52;;;;;;;34.80;20.13;;;;;;;;;;5046208;28;20044;-77
2022/12/13 09:00:19;;;;;;;39.80;21.80;;;;;;;;;;5050909;28;20052;-77
2022/12/13 09:02:45;;;;;;;39.95;21.63;;;;;;;;;;5058642;28;20040;-77
2022/12/13 09:05:14;;;;;;;38.97;20.92;;;;;;;;;;5030631;28;20076;-77
2022/12/13 09:07:42;;;;;;;42.65;21.75;;;;;;;;;;5050107;28;20044;-77
2022/12/13 09:10:09;;;;;;;34.75;20.30;;;;;;;;;;5048698;28;20052;-78
2022/12/13 09:12:35;;;;;;;38.88;21.00;;;;;;;;;;5051407;28;20446;-77
2022/12/13 09:15:01;;;;;;;41.53;20.75;;;;;;;;;;5043794;28;20037;-77
2022/12/13 09:17:28;;;;;;;38.08;21.25;;;;;;;;;;5052831;28;20048;-76
2022/12/13 09:19:54;;;;;;;37.20;20.80;;;;;;;;;;5043495;28;20057;-76
2022/12/13 09:22:20;;;;;;;37.67;19.50;;;;;;;;;;5034195;28;20045;-77
2022/12/13 09:24:46;;;;;;;33.65;20.17;;;;;;;;;;5033179;28;20044;-77
2022/12/13 09:27:12;;;;;;;35.15;21.17;;;;;;;;;;5052023;28;20080;-77
2022/12/13 09:29:39;;;;;;;34.95;19.73;;;;;;;;;;5064663;28;20040;-77
2022/12/13 09:32:05;;;;;;;35.00;19.02;;;;;;;;;;5066055;28;20095;-77
2022/12/13 09:34:34;;;;;;;34.67;20.65;;;;;;;;;;5052937;28;20045;-78
2022/12/13 09:37:00;;;;;;;35.15;19.52;;;;;;;;;;5059674;28;20389;-79
2022/12/13 09:39:26;;;;;;;41.17;22.48;;;;;;;;;;5053011;28;20048;-77
2022/12/13 09:41:54;;;;;;;33.90;19.17;;;;;;;;;;5051095;28;20056;-78
2022/12/13 09:44:26;;;;;;;34.08;20.60;;;;;;;;;;5053799;28;20073;-77
2022/12/13 09:46:53;;;;;;;34.65;20.13;;;;;;;;;;5035004;28;20049;-78
2022/12/13 09:49:20;;;;;;;35.55;19.38;;;;;;;;;;5042562;28;20045;-76
2022/12/13 09:51:51;;;;;;;34.55;19.67;;;;;;;;;;5053514;28;20045;-76
2022/12/13 09:54:18;;;;;;;34.67;20.48;;;;;;;;;;5052756;28;20049;-76
2022/12/13 09:56:49;;;;;;;35.28;19.73;;;;;;;;;;5056453;28;20052;-77
2022/12/13 09:59:16;;;;;;;38.60;20.67;;;;;;;;;;5051736;28;20128;-77
2022/12/13 10:01:42;;;;;;;36.72;20.65;;;;;;;;;;5053548;28;20116;-77
2022/12/13 10:04:10;;;;;;;36.42;19.83;;;;;;;;;;5052273;28;20416;-78
2022/12/13 10:06:37;;;;;;;36.00;20.67;;;;;;;;;;5034939;28;20401;-78
2022/12/13 10:09:07;;;;;;;33.95;21.00;;;;;;;;;;5053212;28;20073;-78
2022/12/13 10:11:34;;;;;;;36.28;20.92;;;;;;;;;;5067576;28;20052;-78
2022/12/13 10:14:05;;;;;;;35.67;20.15;;;;;;;;;;5053148;28;20045;-78
2022/12/13 10:16:34;;;;;;;34.53;19.33;;;;;;;;;;5053907;28;20053;-77
2022/12/13 10:19:20;;;;;;;31.95;19.02;;;;;;;;;;5052863;28;20148;-77
2022/12/13 10:21:47;;;;;;;34.70;19.33;;;;;;;;;;5053291;28;20048;-77
2022/12/13 10:24:16;;;;;;;31.95;19.42;;;;;;;;;;5054075;28;20068;-77
2022/12/13 10:26:42;;;;;;;33.10;20.05;;;;;;;;;;5055205;28;20116;-77
2022/12/13 10:29:08;;;;;;;36.80;20.42;;;;;;;;;;5046347;28;20569;-77
2022/12/13 10:31:38;;;;;;;37.22;21.60;;;;;;;;;;5045450;28;20052;-76
2022/12/13 10:34:04;;;;;;;36.10;20.58;;;;;;;;;;5051653;28;20504;-75
2022/12/13 10:36:37;;;;;;;31.63;18.73;;;;;;;;;;5055108;28;20045;-75
2022/12/13 10:39:03;;;;;;;38.53;21.90;;;;;;;;;;5054896;28;20072;-75
2022/12/13 10:41:29;;;;;;;37.53;20.92;;;;;;;;;;5054818;28;20041;-75
2022/12/13 10:44:09;;;;;;;34.80;21.33;;;;;;;;;;5056033;28;20067;-75
2022/12/13 10:46:35;;;;;;;35.40;19.80;;;;;;;;;;5067512;28;20560;-75
2022/12/13 10:49:01;;;;;;;34.22;20.45;;;;;;;;;;5052435;28;20092;-75
2022/12/13 10:51:37;;;;;;;38.05;20.27;;;;;;;;;;5048611;28;20065;-75
2022/12/13 10:54:03;;;;;;;31.05;19.98;;;;;;;;;;5056378;28;20089;-75
2022/12/13 10:56:49;;;;;;;35.35;18.90;;;;;;;;;;5056158;28;20072;-75
2022/12/13 10:59:19;;;;;;;35.28;19.58;;;;;;;;;;5055834;28;20489;-75
2022/12/13 11:01:46;;;;;;;35.00;20.42;;;;;;;;;;5055969;28;20122;-75
2022/12/13 11:04:28;;;;;;;33.08;20.17;;;;;;;;;;5055769;28;20135;-75
2022/12/13 11:06:55;;;;;;;34.88;20.75;;;;;;;;;;5054640;28;20112;-75
2022/12/13 11:09:26;;;;;;;35.80;20.27;;;;;;;;;;5055841;28;20033;-75
2022/12/13 11:11:52;;;;;;;33.45;20.33;;;;;;;;;;5055150;28;20041;-75
2022/12/13 11:14:20;;;;;;;36.78;20.33;;;;;;;;;;5055473;28;20057;-77
2022/12/13 11:16:51;;;;;;;34.75;19.90;;;;;;;;;;5069697;28;20040;-75
2022/12/13 11:19:22;;;;;;;30.67;19.98;;;;;;;;;;5055632;28;20037;-75
2022/12/13 11:21:49;;;;;;;32.25;19.02;;;;;;;;;;5036746;28;20083;-75
2022/12/13 11:24:30;;;;;;;36.95;21.08;;;;;;;;;;5035912;28;20461;-75
2022/12/13 11:26:57;;;;;;;35.65;19.20;;;;;;;;;;5037330;28;20048;-75
2022/12/13 11:29:44;;;;;;;35.15;20.13;;;;;;;;;;5037718;28;20045;-75
2022/12/13 11:32:28;;;;;;;36.78;20.25;;;;;;;;;;5055920;28;20040;-75
2022/12/13 11:35:01;;;;;;;31.60;18.77;;;;;;;;;;5055771;28;20045;-75
2022/12/13 11:37:30;;;;;;;31.55;18.83;;;;;;;;;;5055775;28;20051;-75
2022/12/13 11:40:02;;;;;;;33.90;20.77;;;;;;;;;;5037721;28;20052;-79
2022/12/13 11:42:31;;;;;;;31.33;20.52;;;;;;;;;;5039992;28;20069;-75
2022/12/13 11:45:00;;;;;;;33.33;20.77;;;;;;;;;;5055296;28;20124;-75
2022/12/13 11:47:31;;;;;;;33.08;18.67;;;;;;;;;;5050399;28;20129;-75
2022/12/13 11:49:57;;;;;;;30.75;18.35;;;;;;;;;;5050590;28;20069;-75
2022/12/13 11:52:26;;;;;;;32.55;19.42;;;;;;;;;;5048414;28;20049;-75
2022/12/13 11:54:52;;;;;;;33.30;19.13;;;;;;;;;;5054823;28;20037;-75
2022/12/13 11:57:27;;;;;;;34.00;19.13;;;;;;;;;;5055219;28;20063;-75
2022/12/13 11:59:57;;;;;;;31.63;18.35;;;;;;;;;;5032838;28;20033;-75
2022/12/13 12:02:33;;;;;;;27.70;16.75;;;;;;;;;;5050887;28;20505;-75
2022/12/13 12:05:01;;;;;;;33.05;17.98;;;;;;;;;;5048358;28;20503;-75
2022/12/13 12:07:32;;;;;;;27.92;16.73;;;;;;;;;;5051147;28;20049;-76
2022/12/13 12:10:02;;;;;;;30.45;18.08;;;;;;;;;;5065453;28;20053;-76
2022/12/13 12:12:32;;;;;;;31.80;18.80;;;;;;;;;;5043929;28;20041;-76
2022/12/13 12:15:04;;;;;;;30.77;19.13;;;;;;;;;;5058025;28;20106;-75
2022/12/13 12:17:30;;;;;;;28.30;17.30;;;;;;;;;;5037704;28;20049;-76
2022/12/13 12:19:57;;;;;;;32.40;17.75;;;;;;;;;;5038171;28;20128;-76
2022/12/13 12:22:36;;;;;;;29.40;17.83;;;;;;;;;;5053458;28;20519;-76
2022/12/13 12:25:14;;;;;;;29.45;16.98;;;;;;;;;;5054513;28;20120;-75
2022/12/13 12:27:44;;;;;;;28.27;16.70;;;;;;;;;;5053712;28;20064;-76
2022/12/13 12:30:10;;;;;;;30.45;17.38;;;;;;;;;;5032899;28;20041;-76
2022/12/13 12:32:45;;;;;;;27.88;17.13;;;;;;;;;;5033038;28;20045;-76
2022/12/13 12:35:26;;;;;;;31.25;18.60;;;;;;;;;;5033058;28;20045;-76
2022/12/13 12:37:59;;;;;;;29.23;17.00;;;;;;;;;;5051199;28;20120;-76
2022/12/13 12:40:39;;;;;;;26.48;16.08;;;;;;;;;;5053915;28;20072;-76
2022/12/13 12:43:18;;;;;;;31.42;17.95;;;;;;;;;;5053819;28;20056;-76
2022/12/13 12:45:44;;;;;;;27.67;17.13;;;;;;;;;;5054512;28;20098;-76
2022/12/13 12:48:20;;;;;;;26.88;16.63;;;;;;;;;;5054095;28;20041;-75
2022/12/13 12:51:06;;;;;;;29.55;16.50;;;;;;;;;;5053868;28;20052;-76
2022/12/13 12:53:46;;;;;;;27.58;16.65;;;;;;;;;;5053152;28;20045;-76
2022/12/13 12:56:24;;;;;;;28.95;16.55;;;;;;;;;;5032327;28;20042;-76
2022/12/13 12:58:58;;;;;;;27.42;16.75;;;;;;;;;;5050638;28;20528;-76
2022/12/13 13:01:27;;;;;;;26.52;15.90;;;;;;;;;;5053814;28;20052;-76
2022/12/13 13:03:54;;;;;;;26.95;15.70;;;;;;;;;;5053858;28;20045;-76
2022/12/13 13:06:30;;;;;;;27.33;16.27;;;;;;;;;;5052168;28;20401;-76
2022/12/13 13:09:16;;;;;;;26.20;15.23;;;;;;;;;;5053037;28;20045;-76
2022/12/13 13:11:43;;;;;;;26.17;14.80;;;;;;;;;;5046837;28;20068;-76
2022/12/13 13:14:28;;;;;;;24.50;15.02;;;;;;;;;;5053764;28;20045;-76
2022/12/13 13:16:55;;;;;;;26.17;15.57;;;;;;;;;;5053670;28;20048;-76
2022/12/13 13:19:21;;;;;;;26.35;16.30;;;;;;;;;;5053340;28;20043;-76
2022/12/13 13:21:57;;;;;;;26.77;15.82;;;;;;;;;;5053708;28;20123;-76
2022/12/13 13:24:27;;;;;;;30.55;16.65;;;;;;;;;;5052819;28;20044;-76
2022/12/13 13:26:57;;;;;;;31.33;16.50;;;;;;;;;;5034111;28;20374;-76
2022/12/13 13:29:23;;;;;;;26.95;17.23;;;;;;;;;;5053603;28;20045;-78
2022/12/13 13:32:11;;;;;;;25.00;15.05;;;;;;;;;;5053203;28;20091;-76
2022/12/13 13:34:38;;;;;;;25.63;15.32;;;;;;;;;;5051853;28;20175;-76
2022/12/13 13:37:05;;;;;;;23.73;15.23;;;;;;;;;;5052119;28;20045;-77
2022/12/13 13:39:31;;;;;;;26.13;15.27;;;;;;;;;;5048064;28;20052;-76
2022/12/13 13:42:16;;;;;;;25.45;14.88;;;;;;;;;;5035358;28;20512;-76
2022/12/13 13:44:45;;;;;;;25.02;15.75;;;;;;;;;;5053145;28;20106;-76
2022/12/13 13:47:12;;;;;;;26.60;15.77;;;;;;;;;;5053297;28;20435;-76
2022/12/13 13:49:41;;;;;;;24.88;14.57;;;;;;;;;;5052819;28;20397;-77
2022/12/13 13:52:23;;;;;;;22.90;13.90;;;;;;;;;;5053635;28;20083;-76
2022/12/13 13:54:49;;;;;;;24.02;15.50;;;;;;;;;;5052896;28;20488;-76
2022/12/13 13:57:15;;;;;;;26.33;15.90;;;;;;;;;;5052234;28;20069;-76
2022/12/13 14:00:00;;;;;;;25.17;14.32;;;;;;;;;;5052871;28;20098;-77
2022/12/13 14:02:28;;;;;;;25.25;13.85;;;;;;;;;;5051756;28;20447;-75
2022/12/13 14:05:13;;;;;;;24.70;13.65;;;;;;;;;;5051963;28;20048;-75
2022/12/13 14:07:57;;;;;;;25.30;14.35;;;;;;;;;;5052583;28;20045;-75
2022/12/13 14:10:30;;;;;;;25.55;14.48;;;;;;;;;;5050796;28;20485;-75
2022/12/13 14:13:14;;;;;;;27.70;15.63;;;;;;;;;;5056948;28;20041;-75
2022/12/13 14:15:56;;;;;;;27.77;16.15;;;;;;;;;;5037489;28;20037;-76
2022/12/13 14:18:40;;;;;;;28.48;16.65;;;;;;;;;;5056119;28;20049;-75
2022/12/13 14:21:16;;;;;;;28.83;16.52;;;;;;;;;;5055237;28;20045;-76
2022/12/13 14:23:51;;;;;;;32.80;19.08;;;;;;;;;;5038474;28;20041;-76
2022/12/13 14:26:17;;;;;;;30.03;19.37;;;;;;;;;;5035144;28;20115;-76
2022/12/13 14:28:46;;;;;;;50.08;27.00;;;;;;;;;;5051879;28;20412;-75
2022/12/13 14:31:27;;;;;;;33.28;20.30;;;;;;;;;;5046596;28;20169;-75